Main page
METAR-TAF:

METAR-TAF

Airports :

Okadama Airport

Sapporo, Japan

latitude: 43-07N, longitude: 141-23E, elevation: 8 m

Current weather observation

The report was made 8 hours and 56 minutes ago, at 11:00 UTC
Wind 7 kt from the South/Southeast
Temperature 17°C
Humidity 72%
Pressure 1021 hPa
Visibility 10 km or more
Few clouds at a height of 2000 ft
Broken clouds at a height of 20000 ft

METAR: RJCO 161100Z 15007KT 9999 FEW020 BKN200 17/12 Q1021

Time: 04:56 (19:56 UTC)


TAF: missing

Weather observations and forecasts of more than 4000 airports (METAR and TAF reports).

The available stations are represented by yellow and red dots on the map.

Hover mouse over dot to see the name of the station.

Then click to see weather observations and forecasts.

To change the map : click on the green buttons with a black cross to zoom in, on the green button with a dash to zoom out, or on the green arrows for adjacent maps.


METAR-TAF: